METAR Data
IDs: Format: Raw Decoded Include TAF

Data at: 2159 UTC 01 Dec 2021

LRBO 012100Z 24008KT 9999 SCT120 02/M00 Q1010 BLU BLU